Terminal Aerodrome Forecast
Issued by NWS Louisville, KY

Home | Current Version | Previous Version | Text Only | Print | Product List | Glossary On
Versions: 1 2 3 4 5 6 7 8 9 10 11 12 13 14 15 16 17 18 19
000
FTUS43 KLMK 290200 AAA
TAFLEX
TAF AMD
KLEX 290241Z 2903/2924 19004KT P6SM -SHRA SCT035 BKN070
     FM290500 18004KT P6SM FEW035 BKN080
     FM290900 15004KT 4SM BR SCT025
     FM291300 19009KT 5SM BR BKN025
     FM291600 21009KT P6SM VCSH BKN035=

USA.gov is the U.S. government's official web portal to all federal, state and local government web resources and services.